Flight Track Log - Related Links

Times and Time Zones

All times are in EDT time to prevent confusion due to time zone crossing. See the UAL33 flight status page for this flight to view local times or setup timezone preferences in your user account.

Time Position Orientation Groundspeed Altitude Reporting Facility
EDT Latitude Longitude Course Direction KTS km/h feet Rate Location/Type
Sun 18:19:46 29.9625 -95.3461 156° South 170 315 600  Level FlightAware ADS-B
Sun 18:20:07 29.9464 -95.3461 180° South 180 333 1,400 2,444 Climbing FlightAware ADS-B
Sun 18:20:13 29.9417 -95.3497 214° Southwest 186 344 1,700 2,400 Climbing FlightAware ADS-B
Sun 18:20:17 29.9394 -95.3522 223° Southwest 192 356 1,800 1,286 Climbing FlightAware ADS-B
Sun 18:20:27 29.9344 -95.3610 237° Southwest 204 378 2,000 1,286 Climbing FlightAware ADS-B
Sun 18:20:31 29.9333 -95.3653 254° West 213 394 2,100 1,500 Climbing FlightAware ADS-B
Sun 18:20:35 29.9326 -95.3709 262° West 221 409 2,200 1,800 Climbing FlightAware ADS-B
Sun 18:20:41 29.9330 -95.3781 274° West 231 428 2,400 1,636 Climbing FlightAware ADS-B
Sun 18:20:46 29.9342 -95.3832 285° West 237 439 2,500 1,500 Climbing FlightAware ADS-B
Sun 18:20:49 29.9355 -95.3870 292° West 243 451 2,600 2,000 Climbing FlightAware ADS-B
Sun 18:20:52 29.9372 -95.3905 299° West 248 459 2,700 2,571 Climbing FlightAware ADS-B
Sun 18:20:56 29.9400 -95.3951 305° West 252 467 2,900 2,250 Climbing FlightAware ADS-B
Sun 18:21:00 29.9430 -95.3987 314° West 258 478 3,000 1,714 Climbing FlightAware ADS-B
Sun 18:21:03 29.9461 -95.4017 320° Northwest 263 488 3,100 2,250 Climbing FlightAware ADS-B
Sun 18:21:08 29.9512 -95.4053 329° Northwest 268 496 3,300 2,250 Climbing FlightAware ADS-B
Sun 18:21:11 29.9548 -95.4073 334° Northwest 269 499 3,400 1,714 Climbing FlightAware ADS-B
Sun 18:21:15 29.9595 -95.4091 342° North 270 501 3,500 1,500 Climbing FlightAware ADS-B
Sun 18:21:19 29.9642 -95.4103 348° North 270 501 3,600 1,714 Climbing FlightAware ADS-B
Sun 18:21:22 29.9686 -95.4112 350° North 271 502 3,700 2,526 Climbing FlightAware ADS-B
Sun 18:21:38 29.9874 -95.4136 354° North 273 505 4,400 3,273 Climbing FlightAware ADS-B
Sun 18:22:17 30.0377 -95.4187 355° North 279 517 6,700 3,375 Climbing FlightAware ADS-B
Sun 18:23:14 30.1131 -95.4257 355° North 292 541 9,800 3,344 Climbing FlightAware ADS-B
Sun 18:23:18 30.1187 -95.4268 350° North 292 541 10,100 2,842 Climbing FlightAware ADS-B
Sun 18:23:33 30.1388 -95.4330 343° North 302 560 10,700 2,000 Climbing FlightAware ADS-B
Sun 18:23:39 30.1470 -95.4367 339° North 309 573 10,800 1,773 Climbing FlightAware ADS-B
Sun 18:24:17 30.2000 -95.4659 334° Northwest 350 649 12,000 2,640 Climbing FlightAware ADS-B
Sun 18:25:19 30.2937 -95.5176 334° Northwest 374 692 15,200 2,862 Climbing FlightAware ADS-B
Sun 18:26:27 30.4049 -95.5795 334° Northwest 403 747 18,200 2,588 Climbing FlightAware ADS-B
Sun 18:27:01 30.4620 -95.6109 335° Northwest 411 761 19,600 2,625 Climbing FlightAware ADS-B
Sun 18:27:31 30.5141 -95.6400 334° Northwest 419 776 21,000 2,674 Climbing FlightAware ADS-B
Sun 18:28:33 30.6235 -95.6992 336° Northwest 423 784 23,700 2,474 Climbing FlightAware ADS-B
Sun 18:29:08 30.6875 -95.7332 335° Northwest 429 795 25,000 2,328 Climbing FlightAware ADS-B
Sun 18:29:40 30.7457 -95.7642 335° Northwest 434 803 26,300 1,958 Climbing FlightAware ADS-B
Sun 18:30:43 30.8627 -95.8272 335° Northwest 453 838 28,100 1,694 Climbing FlightAware ADS-B
Sun 18:31:44 30.9809 -95.8907 335° Northwest 469 869 29,800 1,699 Climbing FlightAware ADS-B
Sun 18:32:36 31.0846 -95.9466 335° Northwest 478 885 31,300 1,701 Climbing FlightAware ADS-B
Sun 18:32:51 31.1169 -95.9613 339° North 482 893 31,700 1,391 Climbing FlightAware ADS-B
Sun 18:33:45 31.2334 -95.9935 349° North 494 914 32,900 1,429 Climbing FlightAware ADS-B
Sun 18:34:15 31.3017 -96.0094 349° North 497 921 33,700 1,574 Climbing FlightAware ADS-B
Sun 18:34:46 31.3720 -96.0258 349° North 498 922 34,500 1,313 Climbing FlightAware ADS-B
Sun 18:35:19 31.4465 -96.0433 349° North 506 937 35,100 1,417 Climbing FlightAware ADS-B
Sun 18:36:53 31.6632 -96.0942 349° North 505 935 37,500 1,500 Climbing FlightAware ADS-B
Sun 18:37:23 31.7320 -96.1105 349° North 501 929 38,200 1,286 Climbing FlightAware ADS-B
Sun 18:38:03 31.8226 -96.1319 349° North 496 919 39,000 600 Climbing FlightAware ADS-B
Sun 18:38:43 31.9124 -96.1532 349° North 493 912 39,000  Level FlightAware ADS-B
Sun 18:39:16 31.9840 -96.1700 349° North 489 906 39,000  Level FlightAware ADS-B
Sun 18:40:00 32.0830 -96.1940 348° North 488 904 39,000  Level FlightAware ADS-B
Sun 18:40:10 32.1051 -96.1987 350° North 491 909 39,000  Level FlightAware ADS-B
Sun 18:41:55 32.3448 -96.2199 359° North 495 917 39,000  Level FlightAware ADS-B
Sun 18:43:18 32.5335 -96.2222 359° North 494 914 39,000  Level FlightAware ADS-B
Sun 18:44:10 32.6500 -96.2240 359° North 490 908 39,000  Level FlightAware ADS-B
Sun 18:44:45 32.7180 -96.2240 360° North 484 896 39,000  Level FlightAware ADS-B
Sun 18:45:34 32.8390 -96.2260 359° North 474 877 39,000  Level FlightAware ADS-B
Sun 18:46:17 32.9330 -96.2270 359° North 470 871 39,000  Level FlightAware ADS-B
Sun 18:46:58 33.0200 -96.2280 359° North 473 875 39,000  Level FlightAware ADS-B
Sun 18:47:38 33.1070 -96.2290 359° North 471 872 39,000  Level FlightAware ADS-B
Sun 18:48:22 33.2030 -96.2300 360° North 467 864 39,000  Level FlightAware ADS-B
Sun 18:49:05 33.2990 -96.2310 360° North 466 863 39,000  Level FlightAware ADS-B
Sun 18:49:44 33.3800 -96.2320 359° North 467 864 39,000  Level FlightAware ADS-B
Sun 18:50:30 33.4820 -96.2330 360° North 469 869 39,000  Level FlightAware ADS-B
Sun 18:50:59 33.5440 -96.2280 North 469 869 39,000  Level FlightAware ADS-B
Sun 18:51:38 33.6250 -96.2040 14° North 469 869 39,000  Level FlightAware ADS-B
Sun 18:52:21 33.7160 -96.1730 16° North 466 863 39,000  Level FlightAware ADS-B
Sun 18:53:04 33.8040 -96.1430 16° North 464 859 39,000  Level FlightAware ADS-B
Sun 18:53:45 33.8900 -96.1140 16° North 462 856 39,000  Level FlightAware ADS-B
Sun 18:54:25 33.9720 -96.0860 16° North 459 850 39,000  Level FlightAware ADS-B
Sun 18:55:10 34.0640 -96.0550 16° North 455 843 39,000  Level FlightAware ADS-B
Sun 18:55:53 34.1510 -96.0250 16° North 454 840 39,000  Level FlightAware ADS-B
Sun 18:56:28 34.2190 -96.0010 16° North 456 845 39,000  Level FlightAware ADS-B
Sun 18:57:14 34.3150 -95.9680 16° North 455 843 39,000  Level FlightAware ADS-B
Sun 18:57:55 34.3990 -95.9390 16° North 454 840 39,000  Level FlightAware ADS-B
Sun 18:58:39 34.4870 -95.9080 16° North 455 843 39,000  Level FlightAware ADS-B
Sun 18:59:22 34.5730 -95.8790 16° North 458 848 39,000  Level FlightAware ADS-B
Sun 19:00:01 34.6420 -95.8550 16° North 459 850 39,000  Level FlightAware ADS-B
Sun 19:00:42 34.7370 -95.8220 16° North 459 850 39,000  Level FlightAware ADS-B
Sun 19:01:24 34.8220 -95.7900 17° North 462 856 39,000  Level FlightAware ADS-B
Sun 19:02:10 34.9040 -95.7190 35° Northeast 478 885 39,000  Level FlightAware ADS-B
Sun 19:02:50 34.9680 -95.6440 44° Northeast 477 884 39,000  Level FlightAware ADS-B
Sun 19:03:33 35.0280 -95.5760 43° Northeast 477 884 39,000  Level FlightAware ADS-B
Sun 19:04:09 35.0770 -95.5200 43° Northeast 477 884 39,000  Level FlightAware ADS-B
Sun 19:06:35 35.3110 -95.2420 44° Northeast 478 885 39,000  Level FlightAware ADS-B
Sun 19:06:45 34.6540 -95.8510 217° Southwest 39,000  Level FlightAware ADS-B
Sun 19:07:18 35.3970 -95.1410 38° Northeast 485 898 39,000 247 Level FlightAware ADS-B
Sun 19:07:58 35.4610 -95.0650 44° Northeast 492 911 39,300 585 Climbing FlightAware ADS-B
Sun 19:08:40 35.5310 -94.9820 44° Northeast 498 922 39,800 512 Climbing FlightAware ADS-B
Sun 19:09:20 35.5920 -94.9100 44° Northeast 504 933 40,000 444 Climbing FlightAware ADS-B
Sun 19:10:01 35.6600 -94.8290 44° Northeast 509 943 40,400 545 Climbing FlightAware ADS-B
Sun 19:10:48 35.7470 -94.7250 44° Northeast 516 956 40,800 404 Climbing FlightAware ADS-B
Sun 19:11:30 35.8180 -94.6400 44° Northeast 517 958 41,000 146 Climbing FlightAware ADS-B
Sun 19:12:10 35.8870 -94.5570 44° Northeast 514 953 41,000  Level FlightAware ADS-B
Sun 19:12:54 35.9610 -94.4680 44° Northeast 514 953 41,000  Level FlightAware ADS-B
Sun 19:13:34 36.0300 -94.3840 45° Northeast 511 946 41,000  Level FlightAware ADS-B
Sun 19:14:16 36.1010 -94.2980 44° Northeast 509 943 41,000  Level FlightAware ADS-B
Sun 19:15:00 36.1730 -94.2110 44° Northeast 511 946 41,000  Level FlightAware ADS-B
Sun 19:15:42 36.2470 -94.1270 42° Northeast 505 935 41,000  Level FlightAware ADS-B
Sun 19:16:22 36.3240 -94.0670 32° Northeast 498 922 41,000  Level FlightAware ADS-B
Sun 19:17:06 36.4140 -94.0040 29° Northeast 495 917 41,000  Level FlightAware ADS-B
Sun 19:17:42 36.4860 -93.9540 29° Northeast 492 911 41,000  Level FlightAware ADS-B
Sun 19:18:28 36.5760 -93.8900 30° Northeast 491 909 41,000  Level FlightAware ADS-B
Sun 19:19:12 36.6620 -93.8290 30° Northeast 490 908 41,000  Level FlightAware ADS-B
Sun 19:19:50 36.7370 -93.7760 30° Northeast 490 908 41,000  Level FlightAware ADS-B
Sun 19:20:34 36.8250 -93.7140 29° Northeast 490 908 41,000  Level FlightAware ADS-B
Sun 19:21:18 36.9110 -93.6530 30° Northeast 492 911 41,000  Level FlightAware ADS-B
Sun 19:21:58 36.9910 -93.5960 30° Northeast 495 917 41,000  Level FlightAware ADS-B
Sun 19:22:40 37.0740 -93.5370 30° Northeast 499 924 41,000  Level FlightAware ADS-B
Sun 19:23:20 37.1540 -93.4790 30° Northeast 499 924 41,000  Level FlightAware ADS-B
Sun 19:24:02 37.2390 -93.4190 29° Northeast 499 924 41,000  Level FlightAware ADS-B
Sun 19:24:48 37.3320 -93.3510 30° Northeast 501 929 41,000  Level FlightAware ADS-B
Sun 19:25:28 37.4070 -93.2870 34° Northeast 505 935 41,000  Level FlightAware ADS-B
Sun 19:26:13 37.4910 -93.2100 36° Northeast 506 937 41,000  Level FlightAware ADS-B
Sun 19:26:54 37.5700 -93.1360 37° Northeast 506 937 41,000  Level FlightAware ADS-B
Sun 19:27:34 37.6460 -93.0660 36° Northeast 507 938 41,000  Level FlightAware ADS-B
Sun 19:28:18 37.7290 -92.9890 36° Northeast 508 941 41,000  Level FlightAware ADS-B
Sun 19:28:58 37.8050 -92.9190 36° Northeast 511 946 41,000  Level FlightAware ADS-B
Sun 19:29:42 37.8870 -92.8410 37° Northeast 514 953 41,000  Level FlightAware ADS-B
Sun 19:30:22 37.9650 -92.7690 36° Northeast 514 953 41,000  Level FlightAware ADS-B
Sun 19:31:06 38.0500 -92.6890 37° Northeast 512 948 41,000  Level FlightAware ADS-B
Sun 19:31:46 38.1250 -92.6180 37° Northeast 513 950 41,000  Level FlightAware ADS-B
Sun 19:32:30 38.2040 -92.5430 37° Northeast 513 950 41,000  Level FlightAware ADS-B
Sun 19:33:07 38.2760 -92.4750 37° Northeast 513 950 41,000  Level FlightAware ADS-B
Sun 19:33:46 38.3400 -92.4160 36° Northeast 513 950 41,000  Level FlightAware ADS-B
Sun 19:34:32 38.4380 -92.3200 37° Northeast 513 950 41,000  Level FlightAware ADS-B
Sun 19:35:11 38.5020 -92.2610 36° Northeast 513 950 41,000  Level FlightAware ADS-B
Sun 19:35:59 38.5800 -92.1880 36° Northeast 513 950 41,000  Level FlightAware ADS-B
Sun 19:36:57 38.6750 -92.1000 36° Northeast 513 950 41,000  Level FlightAware ADS-B
Sun 19:37:34 38.7840 -91.9890 38° Northeast 513 950 41,000  Level FlightAware ADS-B
Sun 19:38:20 38.8710 -91.9040 37° Northeast 513 950 41,000  Level FlightAware ADS-B
Sun 19:39:08 38.9530 -91.8240 37° Northeast 513 950 41,000  Level FlightAware ADS-B
Sun 19:39:57 39.0320 -91.7480 37° Northeast 513 950 41,000  Level FlightAware ADS-B
Sun 19:40:34 39.0920 -91.6900 37° Northeast 513 950 41,000  Level FlightAware ADS-B
Sun 19:41:22 39.2170 -91.5660 38° Northeast 520 962 41,000  Level FlightAware ADS-B
Sun 19:42:00 39.2900 -91.4950 37° Northeast 523 969 41,000  Level FlightAware ADS-B
Sun 19:42:46 39.3770 -91.4090 37° Northeast 523 969 41,000  Level FlightAware ADS-B
Sun 19:43:22 39.4360 -91.3510 37° Northeast 523 969 41,000  Level FlightAware ADS-B
Sun 19:44:12 39.5430 -91.2450 37° Northeast 522 967 41,000  Level FlightAware ADS-B
Sun 19:44:52 39.6190 -91.1690 38° Northeast 521 966 41,000  Level FlightAware ADS-B
Sun 19:45:36 39.7020 -91.0860 38° Northeast 522 967 41,000  Level FlightAware ADS-B
Sun 19:46:18 39.7770 -91.0120 37° Northeast 524 970 41,000 -975 Level FlightAware ADS-B
Sun 19:46:56 39.8570 -90.9320 38° Northeast 527 975 39,700 -2,122 Descending FlightAware ADS-B
Sun 19:47:40 39.9410 -90.8470 38° Northeast 535 991 38,100 -1,706 Descending FlightAware ADS-B
Sun 19:48:38 40.0460 -90.7420 37° Northeast 538 996 36,800 -2,589 Descending FlightAware ADS-B
Sun 19:49:15 40.1270 -90.6580 38° Northeast 533 987 34,000 -2,815 Descending FlightAware ADS-B
Sun 19:49:59 40.2150 -90.5690 38° Northeast 538 996 33,000 -714 Descending FlightAware ADS-B
Sun 19:50:39 40.2910 -90.4910 38° Northeast 541 1003 33,000  Level FlightAware ADS-B
Sun 19:51:22 40.3770 -90.4030 38° Northeast 543 1006 33,000  Level FlightAware ADS-B
Sun 19:52:05 40.4550 -90.3230 38° Northeast 545 1009 33,000  Level FlightAware ADS-B
Sun 19:52:49 40.5480 -90.2270 38° Northeast 544 1007 33,000 -141 Level FlightAware ADS-B
Sun 19:53:30 40.6290 -90.1430 38° Northeast 518 959 32,800 -1,902 Descending FlightAware ADS-B
Sun 19:54:11 40.7080 -90.0620 38° Northeast 515 954 30,400 -3,318 Descending FlightAware ADS-B
Sun 19:54:55 40.7870 -89.9800 38° Northeast 499 924 28,100 -2,602 Descending FlightAware ADS-B
Sun 19:55:34 40.8580 -89.9050 39° Northeast 491 909 26,800 -1,429 Descending FlightAware ADS-B
Sun 19:56:19 40.9370 -89.8230 38° Northeast 489 906 26,100 -988 Descending FlightAware ADS-B
Sun 19:56:59 41.0090 -89.7470 39° Northeast 488 904 25,400 -1,024 Descending FlightAware ADS-B
Sun 19:57:41 41.0800 -89.6720 39° Northeast 481 892 24,700 -1,084 Descending FlightAware ADS-B
Sun 19:58:22 41.1480 -89.5930 41° Northeast 471 872 23,900 -1,694 Descending FlightAware ADS-B
Sun 19:59:06 41.1990 -89.4900 57° Northeast 458 848 22,300 -2,233 Descending FlightAware ADS-B
Sun 19:59:48 41.2410 -89.3860 62° Northeast 450 834 20,700 -2,175 Descending FlightAware ADS-B
Sun 20:00:26 41.2790 -89.2930 61° Northeast 440 814 19,400 -2,053 Descending FlightAware ADS-B
Sun 20:01:04 41.3150 -89.2040 62° Northeast 433 801 18,100 -1,953 Descending FlightAware ADS-B
Sun 20:01:52 41.3600 -89.0910 62° Northeast 423 784 16,600 -1,933 Descending FlightAware ADS-B
Sun 20:02:34 41.3970 -88.9980 62° Northeast 397 735 15,200 -1,857 Descending FlightAware ADS-B
Sun 20:03:16 41.4310 -88.9130 62° Northeast 364 674 14,000 -1,744 Descending FlightAware ADS-B
Sun 20:04:00 41.4670 -88.8220 62° Northeast 365 676 12,700 -1,724 Descending FlightAware ADS-B
Sun 20:04:43 41.5000 -88.7380 62° Northeast 355 658 11,500 -1,171 Descending FlightAware ADS-B
Sun 20:05:22 41.5290 -88.6670 61° Northeast 325 602 11,100 -253 Descending FlightAware ADS-B
Sun 20:06:18 41.5670 -88.5700 62° Northeast 306 566 11,100 -356 Level FlightAware ADS-B
Sun 20:07:03 41.5970 -88.4950 62° Northeast 309 573 10,500 -857 Descending FlightAware ADS-B
Sun 20:07:42 41.6290 -88.4330 55° Northeast 306 566 9,900 -985 Descending FlightAware ADS-B
Sun 20:08:10 41.6530 -88.3930 51° Northeast 305 565 9,400 -913 Descending FlightAware ADS-B
Sun 20:08:28 41.6730 -88.3720 38° Northeast 303 562 9,200 -1,000 Descending FlightAware ADS-B
Sun 20:08:52 41.7060 -88.3580 18° North 303 562 8,700 -1,019 Descending FlightAware ADS-B
Sun 20:09:21 41.7430 -88.3440 16° North 298 552 8,300 -1,000 Descending FlightAware ADS-B
Sun 20:09:46 41.7770 -88.3310 16° North 295 546 7,800 -1,132 Descending FlightAware ADS-B
Sun 20:10:14 41.8130 -88.3180 15° North 290 538 7,300 -875 Descending FlightAware ADS-B
Sun 20:10:34 41.8390 -88.3090 14° North 273 505 7,100 -818 Descending FlightAware ADS-B
Sun 20:10:58 41.8680 -88.2990 14° North 249 462 6,700 -727 Descending FlightAware ADS-B
Sun 20:11:40 41.8780 -88.2960 13° North 246 455 6,300 -2,339 Descending FlightAware ADS-B
Sun 20:11:57 41.9290 -88.2710 20° North 234 433 4,400 -2,933 Descending FlightAware ADS-B
Sun 20:12:25 41.9440 -88.2370 59° Northeast 225 417 4,100 -310 Descending FlightAware ADS-B
Sun 20:12:55 41.9590 -88.2010 61° Northeast 217 402 4,100  Level FlightAware ADS-B
Sun 20:13:23 41.9680 -88.1680 70° East 187 346 4,100 -529 Level FlightAware ADS-B
Sun 20:14:03 41.9680 -88.1230 90° East 187 346 3,500 -938 Descending FlightAware ADS-B
Sun 20:14:27 41.9690 -88.0950 87° East 181 335 3,100 -1,034 Descending FlightAware ADS-B
Sun 20:15:01 41.9690 -88.0570 90° East 181 335 2,500 -1,065 Descending FlightAware ADS-B
Sun 20:15:29 41.9690 -88.0260 90° East 164 304 2,000 -857 Descending FlightAware ADS-B
Sun 20:15:57 41.9690 -88.0000 90° East 144 267 1,700 -643 Descending FlightAware ADS-B
Sun 20:16:25 41.9690 -87.9760 90° East 143 266 1,400 -600 Descending FlightAware ADS-B
Sun 20:16:37 41.9690 -87.9650 90° East 141 261 1,300 -706 Descending FlightAware ADS-B
Sun 20:16:59 41.9690 -87.9460 90° East 138 256 1,000 -679 Descending FlightAware ADS-B
Sun 20:17:30 41.9690 -87.9240 90° East 133 246 700 -194 Descending FlightAware ADS-B
Sun 20:18:01 41.9690 -87.9000 90° East 122 225 800 194 Climbing FlightAware ADS-B
Sun 20:23:09 41.9790 -87.9130 340° North 25 47 -156 Descending FlightAware ADS-B

Login

Don't have an account? Register now (free) for customized features, flight alerts, and more!